sensor_id;sensor_type;location;lat;lon;timestamp;P1;durP1;ratioP1;P2;durP2;ratioP2
21558;SDS011;10940;48.890;8.240;2024-02-28T00:02:08;4.13;;;3.83;;
21558;SDS011;10940;48.890;8.240;2024-02-28T00:04:33;5.63;;;5.23;;
21558;SDS011;10940;48.890;8.240;2024-02-28T00:06:59;3.90;;;3.50;;
21558;SDS011;10940;48.890;8.240;2024-02-28T00:09:25;4.43;;;4.13;;
21558;SDS011;10940;48.890;8.240;2024-02-28T00:11:50;6.70;;;3.83;;
21558;SDS011;10940;48.890;8.240;2024-02-28T00:14:16;4.27;;;3.97;;
21558;SDS011;10940;48.890;8.240;2024-02-28T00:16:42;4.00;;;3.70;;
21558;SDS011;10940;48.890;8.240;2024-02-28T00:19:11;4.17;;;3.93;;
21558;SDS011;10940;48.890;8.240;2024-02-28T00:21:38;3.40;;;3.20;;
21558;SDS011;10940;48.890;8.240;2024-02-28T00:24:05;4.13;;;3.83;;
21558;SDS011;10940;48.890;8.240;2024-02-28T00:26:33;3.73;;;3.50;;
21558;SDS011;10940;48.890;8.240;2024-02-28T00:28:59;3.80;;;3.60;;
21558;SDS011;10940;48.890;8.240;2024-02-28T00:31:25;5.27;;;4.13;;
21558;SDS011;10940;48.890;8.240;2024-02-28T00:33:50;3.63;;;3.43;;
21558;SDS011;10940;48.890;8.240;2024-02-28T00:36:16;4.40;;;4.10;;
21558;SDS011;10940;48.890;8.240;2024-02-28T00:38:43;6.83;;;4.87;;
21558;SDS011;10940;48.890;8.240;2024-02-28T00:41:09;4.63;;;4.33;;
21558;SDS011;10940;48.890;8.240;2024-02-28T00:43:34;4.67;;;4.33;;
21558;SDS011;10940;48.890;8.240;2024-02-28T00:46:00;3.33;;;3.13;;
21558;SDS011;10940;48.890;8.240;2024-02-28T00:48:25;4.13;;;3.87;;
21558;SDS011;10940;48.890;8.240;2024-02-28T00:50:54;3.77;;;3.47;;
21558;SDS011;10940;48.890;8.240;2024-02-28T00:53:20;4.30;;;4.00;;
21558;SDS011;10940;48.890;8.240;2024-02-28T00:55:46;6.50;;;5.60;;
21558;SDS011;10940;48.890;8.240;2024-02-28T00:58:11;3.30;;;3.10;;
21558;SDS011;10940;48.890;8.240;2024-02-28T01:00:37;5.17;;;4.80;;
21558;SDS011;10940;48.890;8.240;2024-02-28T01:03:02;3.93;;;3.63;;
21558;SDS011;10940;48.890;8.240;2024-02-28T01:05:29;4.37;;;4.07;;
21558;SDS011;10940;48.890;8.240;2024-02-28T01:07:55;3.73;;;3.53;;
21558;SDS011;10940;48.890;8.240;2024-02-28T01:10:20;4.67;;;4.33;;
21558;SDS011;10940;48.890;8.240;2024-02-28T01:12:46;4.87;;;4.40;;
21558;SDS011;10940;48.890;8.240;2024-02-28T01:15:12;4.90;;;4.50;;
21558;SDS011;10940;48.890;8.240;2024-02-28T01:17:38;4.70;;;4.40;;
21558;SDS011;10940;48.890;8.240;2024-02-28T01:20:04;3.33;;;3.13;;
21558;SDS011;10940;48.890;8.240;2024-02-28T01:22:32;2.53;;;2.43;;
21558;SDS011;10940;48.890;8.240;2024-02-28T01:24:57;3.87;;;3.57;;
21558;SDS011;10940;48.890;8.240;2024-02-28T01:27:23;3.47;;;3.27;;
21558;SDS011;10940;48.890;8.240;2024-02-28T01:29:48;4.07;;;3.80;;
21558;SDS011;10940;48.890;8.240;2024-02-28T01:32:14;3.83;;;3.47;;
21558;SDS011;10940;48.890;8.240;2024-02-28T01:34:40;4.37;;;3.97;;
21558;SDS011;10940;48.890;8.240;2024-02-28T01:37:05;3.80;;;3.60;;
21558;SDS011;10940;48.890;8.240;2024-02-28T01:39:31;4.43;;;4.10;;
21558;SDS011;10940;48.890;8.240;2024-02-28T01:41:56;4.27;;;3.97;;
21558;SDS011;10940;48.890;8.240;2024-02-28T01:44:22;6.70;;;6.20;;
21558;SDS011;10940;48.890;8.240;2024-02-28T01:46:48;4.40;;;4.10;;
21558;SDS011;10940;48.890;8.240;2024-02-28T01:49:14;4.33;;;4.03;;
21558;SDS011;10940;48.890;8.240;2024-02-28T01:51:40;4.53;;;4.23;;
21558;SDS011;10940;48.890;8.240;2024-02-28T01:54:06;4.10;;;3.80;;
21558;SDS011;10940;48.890;8.240;2024-02-28T01:56:32;4.83;;;4.53;;
21558;SDS011;10940;48.890;8.240;2024-02-28T01:58:59;4.33;;;4.03;;
21558;SDS011;10940;48.890;8.240;2024-02-28T02:01:26;5.80;;;5.27;;
21558;SDS011;10940;48.890;8.240;2024-02-28T02:03:53;5.40;;;4.97;;
21558;SDS011;10940;48.890;8.240;2024-02-28T02:06:19;5.80;;;5.43;;
21558;SDS011;10940;48.890;8.240;2024-02-28T02:08:45;4.03;;;3.73;;
21558;SDS011;10940;48.890;8.240;2024-02-28T02:11:11;4.03;;;3.73;;
21558;SDS011;10940;48.890;8.240;2024-02-28T02:13:49;18.53;;;5.40;;
21558;SDS011;10940;48.890;8.240;2024-02-28T02:16:15;4.27;;;3.97;;
21558;SDS011;10940;48.890;8.240;2024-02-28T02:18:41;3.27;;;3.07;;
21558;SDS011;10940;48.890;8.240;2024-02-28T02:21:06;4.07;;;3.77;;
21558;SDS011;10940;48.890;8.240;2024-02-28T02:23:34;3.93;;;3.73;;
21558;SDS011;10940;48.890;8.240;2024-02-28T02:26:00;4.33;;;3.90;;
21558;SDS011;10940;48.890;8.240;2024-02-28T02:28:26;5.07;;;4.67;;
21558;SDS011;10940;48.890;8.240;2024-02-28T02:30:51;5.33;;;4.83;;
21558;SDS011;10940;48.890;8.240;2024-02-28T02:33:17;3.40;;;3.20;;
21558;SDS011;10940;48.890;8.240;2024-02-28T02:35:43;5.93;;;5.43;;
21558;SDS011;10940;48.890;8.240;2024-02-28T02:38:08;5.70;;;5.20;;
21558;SDS011;10940;48.890;8.240;2024-02-28T02:40:34;6.67;;;6.03;;
21558;SDS011;10940;48.890;8.240;2024-02-28T02:43:00;6.53;;;6.03;;
21558;SDS011;10940;48.890;8.240;2024-02-28T02:45:25;5.87;;;5.30;;
21558;SDS011;10940;48.890;8.240;2024-02-28T02:47:51;9.17;;;6.77;;
21558;SDS011;10940;48.890;8.240;2024-02-28T02:50:17;10.20;;;5.83;;
21558;SDS011;10940;48.890;8.240;2024-02-28T02:52:42;7.10;;;6.50;;
21558;SDS011;10940;48.890;8.240;2024-02-28T02:55:08;6.53;;;5.93;;
21558;SDS011;10940;48.890;8.240;2024-02-28T02:57:35;6.30;;;5.73;;
21558;SDS011;10940;48.890;8.240;2024-02-28T03:00:01;4.23;;;3.93;;
21558;SDS011;10940;48.890;8.240;2024-02-28T03:02:26;5.07;;;4.67;;
21558;SDS011;10940;48.890;8.240;2024-02-28T03:04:52;6.37;;;5.87;;
21558;SDS011;10940;48.890;8.240;2024-02-28T03:07:17;6.53;;;6.03;;
21558;SDS011;10940;48.890;8.240;2024-02-28T03:09:43;5.50;;;5.10;;
21558;SDS011;10940;48.890;8.240;2024-02-28T03:12:08;5.77;;;5.00;;
21558;SDS011;10940;48.890;8.240;2024-02-28T03:14:37;5.77;;;5.37;;
21558;SDS011;10940;48.890;8.240;2024-02-28T03:17:02;6.77;;;6.27;;
21558;SDS011;10940;48.890;8.240;2024-02-28T03:19:28;8.23;;;7.60;;
21558;SDS011;10940;48.890;8.240;2024-02-28T03:21:54;8.73;;;7.87;;
21558;SDS011;10940;48.890;8.240;2024-02-28T03:24:19;4.13;;;3.83;;
21558;SDS011;10940;48.890;8.240;2024-02-28T03:26:45;6.17;;;5.50;;
21558;SDS011;10940;48.890;8.240;2024-02-28T03:29:11;6.73;;;6.20;;
21558;SDS011;10940;48.890;8.240;2024-02-28T03:31:37;9.20;;;6.97;;
21558;SDS011;10940;48.890;8.240;2024-02-28T03:34:03;6.87;;;6.37;;
21558;SDS011;10940;48.890;8.240;2024-02-28T03:36:28;9.00;;;8.20;;
21558;SDS011;10940;48.890;8.240;2024-02-28T03:38:54;6.97;;;6.43;;
21558;SDS011;10940;48.890;8.240;2024-02-28T03:41:20;7.00;;;6.40;;
21558;SDS011;10940;48.890;8.240;2024-02-28T03:43:45;6.97;;;6.47;;
21558;SDS011;10940;48.890;8.240;2024-02-28T03:46:11;7.30;;;6.80;;
21558;SDS011;10940;48.890;8.240;2024-02-28T03:48:36;8.10;;;6.57;;
21558;SDS011;10940;48.890;8.240;2024-02-28T03:51:02;6.70;;;6.20;;
21558;SDS011;10940;48.890;8.240;2024-02-28T03:53:27;7.77;;;6.67;;
21558;SDS011;10940;48.890;8.240;2024-02-28T03:55:53;8.00;;;7.40;;
21558;SDS011;10940;48.890;8.240;2024-02-28T03:58:19;5.40;;;5.00;;
21558;SDS011;10940;48.890;8.240;2024-02-28T04:00:44;6.80;;;6.27;;
21558;SDS011;10940;48.890;8.240;2024-02-28T04:03:11;7.30;;;6.20;;
21558;SDS011;10940;48.890;8.240;2024-02-28T04:05:36;6.53;;;6.13;;
21558;SDS011;10940;48.890;8.240;2024-02-28T04:08:02;5.83;;;5.43;;
21558;SDS011;10940;48.890;8.240;2024-02-28T04:10:27;4.60;;;4.30;;
21558;SDS011;10940;48.890;8.240;2024-02-28T04:12:53;11.83;;;8.73;;
21558;SDS011;10940;48.890;8.240;2024-02-28T04:15:18;6.80;;;6.30;;
21558;SDS011;10940;48.890;8.240;2024-02-28T04:17:44;5.83;;;5.33;;
21558;SDS011;10940;48.890;8.240;2024-02-28T04:20:13;7.47;;;6.87;;
21558;SDS011;10940;48.890;8.240;2024-02-28T04:22:39;6.93;;;5.57;;
21558;SDS011;10940;48.890;8.240;2024-02-28T04:25:05;7.90;;;7.20;;
21558;SDS011;10940;48.890;8.240;2024-02-28T04:27:32;5.67;;;5.27;;
21558;SDS011;10940;48.890;8.240;2024-02-28T04:29:58;5.63;;;5.23;;
21558;SDS011;10940;48.890;8.240;2024-02-28T04:32:24;6.50;;;6.00;;
21558;SDS011;10940;48.890;8.240;2024-02-28T04:34:49;5.47;;;5.10;;
21558;SDS011;10940;48.890;8.240;2024-02-28T04:37:15;9.07;;;8.23;;
21558;SDS011;10940;48.890;8.240;2024-02-28T04:39:40;7.03;;;6.53;;
21558;SDS011;10940;48.890;8.240;2024-02-28T04:42:06;6.20;;;5.70;;
21558;SDS011;10940;48.890;8.240;2024-02-28T04:44:32;7.33;;;6.80;;
21558;SDS011;10940;48.890;8.240;2024-02-28T04:46:58;8.37;;;7.60;;
21558;SDS011;10940;48.890;8.240;2024-02-28T04:49:23;6.57;;;6.17;;
21558;SDS011;10940;48.890;8.240;2024-02-28T04:51:49;8.30;;;7.50;;
21558;SDS011;10940;48.890;8.240;2024-02-28T04:54:15;7.27;;;6.60;;
21558;SDS011;10940;48.890;8.240;2024-02-28T04:56:41;14.83;;;7.57;;
21558;SDS011;10940;48.890;8.240;2024-02-28T04:59:07;7.83;;;7.23;;
21558;SDS011;10940;48.890;8.240;2024-02-28T05:01:33;9.60;;;8.70;;
21558;SDS011;10940;48.890;8.240;2024-02-28T05:04:00;9.03;;;8.23;;
21558;SDS011;10940;48.890;8.240;2024-02-28T05:06:27;9.50;;;8.80;;
21558;SDS011;10940;48.890;8.240;2024-02-28T05:08:52;9.90;;;9.00;;
21558;SDS011;10940;48.890;8.240;2024-02-28T05:11:18;11.37;;;10.37;;
21558;SDS011;10940;48.890;8.240;2024-02-28T05:13:43;11.90;;;10.90;;
21558;SDS011;10940;48.890;8.240;2024-02-28T05:16:13;8.73;;;8.03;;
21558;SDS011;10940;48.890;8.240;2024-02-28T05:18:39;8.13;;;7.53;;
21558;SDS011;10940;48.890;8.240;2024-02-28T05:21:05;13.33;;;9.50;;
21558;SDS011;10940;48.890;8.240;2024-02-28T05:23:31;11.17;;;10.17;;
21558;SDS011;10940;48.890;8.240;2024-02-28T05:25:56;7.73;;;7.13;;
21558;SDS011;10940;48.890;8.240;2024-02-28T05:28:22;8.77;;;7.97;;
21558;SDS011;10940;48.890;8.240;2024-02-28T05:30:48;8.30;;;7.37;;
21558;SDS011;10940;48.890;8.240;2024-02-28T05:33:15;6.70;;;6.20;;
21558;SDS011;10940;48.890;8.240;2024-02-28T05:35:42;10.60;;;8.67;;
21558;SDS011;10940;48.890;8.240;2024-02-28T05:38:08;8.20;;;7.53;;
21558;SDS011;10940;48.890;8.240;2024-02-28T05:40:33;9.87;;;8.63;;
21558;SDS011;10940;48.890;8.240;2024-02-28T05:42:59;12.87;;;11.10;;
21558;SDS011;10940;48.890;8.240;2024-02-28T05:45:27;9.40;;;8.67;;
21558;SDS011;10940;48.890;8.240;2024-02-28T05:47:52;10.50;;;9.60;;
21558;SDS011;10940;48.890;8.240;2024-02-28T05:50:18;9.57;;;8.73;;
21558;SDS011;10940;48.890;8.240;2024-02-28T05:52:43;12.67;;;8.23;;
21558;SDS011;10940;48.890;8.240;2024-02-28T05:55:09;9.73;;;8.77;;
21558;SDS011;10940;48.890;8.240;2024-02-28T05:57:34;13.13;;;10.97;;
21558;SDS011;10940;48.890;8.240;2024-02-28T06:00:00;11.43;;;9.30;;
21558;SDS011;10940;48.890;8.240;2024-02-28T06:02:29;11.47;;;10.33;;
21558;SDS011;10940;48.890;8.240;2024-02-28T06:04:55;10.37;;;9.37;;
21558;SDS011;10940;48.890;8.240;2024-02-28T06:07:21;9.70;;;8.80;;
21558;SDS011;10940;48.890;8.240;2024-02-28T06:09:46;10.07;;;9.20;;
21558;SDS011;10940;48.890;8.240;2024-02-28T06:12:12;9.80;;;9.03;;
21558;SDS011;10940;48.890;8.240;2024-02-28T06:14:38;9.73;;;8.93;;
21558;SDS011;10940;48.890;8.240;2024-02-28T06:17:03;10.63;;;9.63;;
21558;SDS011;10940;48.890;8.240;2024-02-28T06:19:29;11.63;;;10.50;;
21558;SDS011;10940;48.890;8.240;2024-02-28T06:21:54;12.17;;;11.00;;
21558;SDS011;10940;48.890;8.240;2024-02-28T06:24:20;9.90;;;8.97;;
21558;SDS011;10940;48.890;8.240;2024-02-28T06:26:45;11.00;;;10.00;;
21558;SDS011;10940;48.890;8.240;2024-02-28T06:29:11;9.83;;;9.03;;
21558;SDS011;10940;48.890;8.240;2024-02-28T06:31:37;12.63;;;11.43;;
21558;SDS011;10940;48.890;8.240;2024-02-28T06:34:02;11.67;;;10.60;;
21558;SDS011;10940;48.890;8.240;2024-02-28T06:36:28;10.40;;;9.50;;
21558;SDS011;10940;48.890;8.240;2024-02-28T06:38:54;10.57;;;9.50;;
21558;SDS011;10940;48.890;8.240;2024-02-28T06:41:20;11.00;;;10.00;;
21558;SDS011;10940;48.890;8.240;2024-02-28T06:43:45;9.73;;;8.87;;
21558;SDS011;10940;48.890;8.240;2024-02-28T06:46:11;10.53;;;9.63;;
21558;SDS011;10940;48.890;8.240;2024-02-28T06:48:37;11.53;;;10.47;;
21558;SDS011;10940;48.890;8.240;2024-02-28T06:51:02;11.73;;;10.73;;
21558;SDS011;10940;48.890;8.240;2024-02-28T06:53:28;11.10;;;10.10;;
21558;SDS011;10940;48.890;8.240;2024-02-28T06:55:54;10.00;;;9.13;;
21558;SDS011;10940;48.890;8.240;2024-02-28T06:58:20;10.23;;;9.33;;
21558;SDS011;10940;48.890;8.240;2024-02-28T07:00:46;10.50;;;9.60;;
21558;SDS011;10940;48.890;8.240;2024-02-28T07:03:13;9.50;;;8.70;;
21558;SDS011;10940;48.890;8.240;2024-02-28T07:05:38;12.37;;;11.17;;
21558;SDS011;10940;48.890;8.240;2024-02-28T07:08:04;10.97;;;8.90;;
21558;SDS011;10940;48.890;8.240;2024-02-28T07:10:30;9.70;;;8.90;;
21558;SDS011;10940;48.890;8.240;2024-02-28T07:12:55;10.40;;;9.43;;
21558;SDS011;10940;48.890;8.240;2024-02-28T07:15:21;9.80;;;8.93;;
21558;SDS011;10940;48.890;8.240;2024-02-28T07:17:46;16.43;;;12.03;;
21558;SDS011;10940;48.890;8.240;2024-02-28T07:20:12;9.77;;;8.97;;
21558;SDS011;10940;48.890;8.240;2024-02-28T07:22:38;10.67;;;9.77;;
21558;SDS011;10940;48.890;8.240;2024-02-28T07:25:04;11.50;;;10.37;;
21558;SDS011;10940;48.890;8.240;2024-02-28T07:27:32;8.53;;;7.73;;
21558;SDS011;10940;48.890;8.240;2024-02-28T07:29:57;12.30;;;11.13;;
21558;SDS011;10940;48.890;8.240;2024-02-28T07:32:23;9.70;;;8.80;;
21558;SDS011;10940;48.890;8.240;2024-02-28T07:34:48;11.30;;;10.17;;
21558;SDS011;10940;48.890;8.240;2024-02-28T07:37:14;11.13;;;9.97;;
21558;SDS011;10940;48.890;8.240;2024-02-28T07:39:40;10.17;;;9.27;;
21558;SDS011;10940;48.890;8.240;2024-02-28T07:42:05;10.27;;;9.27;;
21558;SDS011;10940;48.890;8.240;2024-02-28T07:44:31;9.60;;;8.80;;
21558;SDS011;10940;48.890;8.240;2024-02-28T07:46:57;12.00;;;10.90;;
21558;SDS011;10940;48.890;8.240;2024-02-28T07:49:23;11.80;;;10.87;;
21558;SDS011;10940;48.890;8.240;2024-02-28T07:51:50;7.73;;;7.10;;
21558;SDS011;10940;48.890;8.240;2024-02-28T07:54:15;11.17;;;10.07;;
21558;SDS011;10940;48.890;8.240;2024-02-28T07:56:41;11.27;;;10.27;;
21558;SDS011;10940;48.890;8.240;2024-02-28T07:59:07;11.20;;;10.13;;
21558;SDS011;10940;48.890;8.240;2024-02-28T08:01:32;11.73;;;10.63;;
21558;SDS011;10940;48.890;8.240;2024-02-28T08:03:58;10.50;;;9.60;;
21558;SDS011;10940;48.890;8.240;2024-02-28T08:06:24;11.33;;;10.20;;
21558;SDS011;10940;48.890;8.240;2024-02-28T08:08:50;9.87;;;9.07;;
21558;SDS011;10940;48.890;8.240;2024-02-28T08:11:15;9.57;;;8.77;;
21558;SDS011;10940;48.890;8.240;2024-02-28T08:13:42;10.77;;;9.87;;
21558;SDS011;10940;48.890;8.240;2024-02-28T08:16:08;14.97;;;11.47;;
21558;SDS011;10940;48.890;8.240;2024-02-28T08:18:34;10.20;;;9.27;;
21558;SDS011;10940;48.890;8.240;2024-02-28T08:21:00;10.20;;;9.20;;
21558;SDS011;10940;48.890;8.240;2024-02-28T08:23:27;9.47;;;8.67;;
21558;SDS011;10940;48.890;8.240;2024-02-28T08:25:54;12.23;;;9.83;;
21558;SDS011;10940;48.890;8.240;2024-02-28T08:28:20;15.60;;;11.03;;
21558;SDS011;10940;48.890;8.240;2024-02-28T08:30:46;11.07;;;9.97;;
21558;SDS011;10940;48.890;8.240;2024-02-28T08:33:13;9.03;;;8.27;;
21558;SDS011;10940;48.890;8.240;2024-02-28T08:35:38;9.73;;;8.93;;
21558;SDS011;10940;48.890;8.240;2024-02-28T08:38:04;10.10;;;9.17;;
21558;SDS011;10940;48.890;8.240;2024-02-28T08:40:29;9.87;;;9.07;;
21558;SDS011;10940;48.890;8.240;2024-02-28T08:42:55;8.07;;;7.37;;
21558;SDS011;10940;48.890;8.240;2024-02-28T08:45:24;11.30;;;8.87;;
21558;SDS011;10940;48.890;8.240;2024-02-28T08:47:50;8.63;;;7.77;;
21558;SDS011;10940;48.890;8.240;2024-02-28T08:50:16;9.50;;;8.63;;
21558;SDS011;10940;48.890;8.240;2024-02-28T08:52:41;8.67;;;7.97;;
21558;SDS011;10940;48.890;8.240;2024-02-28T08:55:07;6.93;;;6.43;;
21558;SDS011;10940;48.890;8.240;2024-02-28T08:57:33;8.43;;;7.63;;
21558;SDS011;10940;48.890;8.240;2024-02-28T08:59:59;9.13;;;8.37;;
21558;SDS011;10940;48.890;8.240;2024-02-28T09:02:24;8.30;;;7.53;;
21558;SDS011;10940;48.890;8.240;2024-02-28T09:04:50;6.83;;;6.03;;
21558;SDS011;10940;48.890;8.240;2024-02-28T09:07:18;9.93;;;7.90;;
21558;SDS011;10940;48.890;8.240;2024-02-28T09:09:46;6.37;;;5.87;;
21558;SDS011;10940;48.890;8.240;2024-02-28T09:12:12;8.57;;;7.23;;
21558;SDS011;10940;48.890;8.240;2024-02-28T09:14:38;6.60;;;6.03;;
21558;SDS011;10940;48.890;8.240;2024-02-28T09:17:04;7.50;;;6.87;;
21558;SDS011;10940;48.890;8.240;2024-02-28T09:19:30;7.87;;;7.27;;
21558;SDS011;10940;48.890;8.240;2024-02-28T09:21:56;9.17;;;8.20;;
21558;SDS011;10940;48.890;8.240;2024-02-28T09:24:22;8.37;;;7.67;;
21558;SDS011;10940;48.890;8.240;2024-02-28T09:26:48;7.60;;;7.00;;
21558;SDS011;10940;48.890;8.240;2024-02-28T09:29:14;8.10;;;7.07;;
21558;SDS011;10940;48.890;8.240;2024-02-28T09:31:40;5.67;;;5.27;;
21558;SDS011;10940;48.890;8.240;2024-02-28T09:34:05;7.77;;;7.17;;
21558;SDS011;10940;48.890;8.240;2024-02-28T09:36:40;5.47;;;5.07;;
21558;SDS011;10940;48.890;8.240;2024-02-28T09:39:10;9.17;;;6.67;;
21558;SDS011;10940;48.890;8.240;2024-02-28T09:41:37;8.13;;;7.43;;
21558;SDS011;10940;48.890;8.240;2024-02-28T09:44:03;6.77;;;6.23;;
21558;SDS011;10940;48.890;8.240;2024-02-28T09:46:31;5.90;;;5.47;;
21558;SDS011;10940;48.890;8.240;2024-02-28T09:48:59;6.67;;;6.17;;
21558;SDS011;10940;48.890;8.240;2024-02-28T09:51:34;4.83;;;4.53;;
21558;SDS011;10940;48.890;8.240;2024-02-28T09:54:03;6.57;;;6.07;;
21558;SDS011;10940;48.890;8.240;2024-02-28T09:56:30;7.47;;;6.80;;
21558;SDS011;10940;48.890;8.240;2024-02-28T09:58:56;5.97;;;5.47;;
21558;SDS011;10940;48.890;8.240;2024-02-28T10:01:23;7.80;;;5.00;;
21558;SDS011;10940;48.890;8.240;2024-02-28T10:03:50;7.13;;;6.13;;
21558;SDS011;10940;48.890;8.240;2024-02-28T10:06:20;5.20;;;4.87;;
21558;SDS011;10940;48.890;8.240;2024-02-28T10:08:46;7.73;;;6.20;;
21558;SDS011;10940;48.890;8.240;2024-02-28T10:11:19;5.07;;;4.77;;
21558;SDS011;10940;48.890;8.240;2024-02-28T10:13:46;5.67;;;5.27;;
21558;SDS011;10940;48.890;8.240;2024-02-28T10:16:12;8.97;;;6.43;;
21558;SDS011;10940;48.890;8.240;2024-02-28T10:18:40;4.50;;;4.20;;
21558;SDS011;10940;48.890;8.240;2024-02-28T10:21:09;6.13;;;5.20;;
21558;SDS011;10940;48.890;8.240;2024-02-28T10:23:37;5.73;;;5.20;;
21558;SDS011;10940;48.890;8.240;2024-02-28T10:26:03;5.20;;;4.80;;
21558;SDS011;10940;48.890;8.240;2024-02-28T10:28:29;6.60;;;4.33;;
21558;SDS011;10940;48.890;8.240;2024-02-28T10:30:54;5.90;;;5.50;;
21558;SDS011;10940;48.890;8.240;2024-02-28T10:33:20;12.80;;;5.47;;
21558;SDS011;10940;48.890;8.240;2024-02-28T10:35:46;4.77;;;4.47;;
21558;SDS011;10940;48.890;8.240;2024-02-28T10:38:17;5.77;;;5.33;;
21558;SDS011;10940;48.890;8.240;2024-02-28T10:40:43;4.37;;;4.07;;
21558;SDS011;10940;48.890;8.240;2024-02-28T10:43:09;4.90;;;4.50;;
21558;SDS011;10940;48.890;8.240;2024-02-28T10:45:35;5.23;;;4.37;;
21558;SDS011;10940;48.890;8.240;2024-02-28T10:48:05;3.87;;;3.57;;
21558;SDS011;10940;48.890;8.240;2024-02-28T10:50:31;3.33;;;3.13;;
21558;SDS011;10940;48.890;8.240;2024-02-28T10:52:59;8.77;;;4.97;;
21558;SDS011;10940;48.890;8.240;2024-02-28T10:55:27;4.80;;;4.40;;
21558;SDS011;10940;48.890;8.240;2024-02-28T10:58:06;6.63;;;5.53;;
21558;SDS011;10940;48.890;8.240;2024-02-28T11:00:32;3.97;;;3.77;;
21558;SDS011;10940;48.890;8.240;2024-02-28T11:03:00;5.07;;;4.73;;
21558;SDS011;10940;48.890;8.240;2024-02-28T11:05:36;4.50;;;4.13;;
21558;SDS011;10940;48.890;8.240;2024-02-28T11:08:09;4.33;;;4.07;;
21558;SDS011;10940;48.890;8.240;2024-02-28T11:10:36;4.43;;;4.13;;
21558;SDS011;10940;48.890;8.240;2024-02-28T11:13:06;2.50;;;2.37;;
21558;SDS011;10940;48.890;8.240;2024-02-28T11:15:34;3.93;;;3.60;;
21558;SDS011;10940;48.890;8.240;2024-02-28T11:18:07;4.03;;;3.73;;
21558;SDS011;10940;48.890;8.240;2024-02-28T11:20:34;2.63;;;2.43;;
21558;SDS011;10940;48.890;8.240;2024-02-28T11:23:00;3.70;;;3.33;;
21558;SDS011;10940;48.890;8.240;2024-02-28T11:25:26;3.83;;;3.63;;
21558;SDS011;10940;48.890;8.240;2024-02-28T11:27:51;2.70;;;2.50;;
21558;SDS011;10940;48.890;8.240;2024-02-28T11:30:17;3.10;;;2.90;;
21558;SDS011;10940;48.890;8.240;2024-02-28T11:32:43;4.40;;;3.43;;
21558;SDS011;10940;48.890;8.240;2024-02-28T11:35:09;5.67;;;3.77;;
21558;SDS011;10940;48.890;8.240;2024-02-28T11:37:37;3.53;;;3.23;;
21558;SDS011;10940;48.890;8.240;2024-02-28T11:40:06;3.17;;;2.97;;
21558;SDS011;10940;48.890;8.240;2024-02-28T11:42:34;5.07;;;4.63;;
21558;SDS011;10940;48.890;8.240;2024-02-28T11:45:00;9.53;;;3.77;;
21558;SDS011;10940;48.890;8.240;2024-02-28T11:47:28;2.53;;;2.43;;
21558;SDS011;10940;48.890;8.240;2024-02-28T11:49:57;4.37;;;2.87;;
21558;SDS011;10940;48.890;8.240;2024-02-28T11:52:24;2.93;;;2.73;;
21558;SDS011;10940;48.890;8.240;2024-02-28T11:54:50;3.00;;;2.80;;
21558;SDS011;10940;48.890;8.240;2024-02-28T11:57:16;2.03;;;1.93;;
21558;SDS011;10940;48.890;8.240;2024-02-28T11:59:43;2.07;;;1.97;;
21558;SDS011;10940;48.890;8.240;2024-02-28T12:02:13;4.70;;;2.83;;
21558;SDS011;10940;48.890;8.240;2024-02-28T12:04:39;2.80;;;2.60;;
21558;SDS011;10940;48.890;8.240;2024-02-28T12:07:07;4.33;;;2.90;;
21558;SDS011;10940;48.890;8.240;2024-02-28T12:09:33;3.43;;;3.23;;
21558;SDS011;10940;48.890;8.240;2024-02-28T12:12:02;2.23;;;2.13;;
21558;SDS011;10940;48.890;8.240;2024-02-28T12:14:31;2.57;;;2.30;;
21558;SDS011;10940;48.890;8.240;2024-02-28T12:16:57;2.60;;;2.40;;
21558;SDS011;10940;48.890;8.240;2024-02-28T12:19:23;2.90;;;2.70;;
21558;SDS011;10940;48.890;8.240;2024-02-28T12:21:49;3.27;;;3.07;;
21558;SDS011;10940;48.890;8.240;2024-02-28T12:24:15;3.07;;;2.87;;
21558;SDS011;10940;48.890;8.240;2024-02-28T12:26:41;3.00;;;2.80;;
21558;SDS011;10940;48.890;8.240;2024-02-28T12:29:06;2.37;;;2.27;;
21558;SDS011;10940;48.890;8.240;2024-02-28T12:31:32;2.43;;;2.33;;
21558;SDS011;10940;48.890;8.240;2024-02-28T12:33:57;1.80;;;1.70;;
21558;SDS011;10940;48.890;8.240;2024-02-28T12:36:24;2.77;;;2.57;;
21558;SDS011;10940;48.890;8.240;2024-02-28T12:38:50;3.20;;;3.00;;
21558;SDS011;10940;48.890;8.240;2024-02-28T12:41:16;2.47;;;2.27;;
21558;SDS011;10940;48.890;8.240;2024-02-28T12:43:42;1.57;;;1.47;;
21558;SDS011;10940;48.890;8.240;2024-02-28T12:46:07;2.77;;;2.50;;
21558;SDS011;10940;48.890;8.240;2024-02-28T12:48:37;2.50;;;2.40;;
21558;SDS011;10940;48.890;8.240;2024-02-28T12:51:03;1.97;;;1.87;;
21558;SDS011;10940;48.890;8.240;2024-02-28T12:53:30;1.73;;;1.63;;
21558;SDS011;10940;48.890;8.240;2024-02-28T12:55:56;3.47;;;3.13;;
21558;SDS011;10940;48.890;8.240;2024-02-28T12:58:22;1.93;;;1.83;;
21558;SDS011;10940;48.890;8.240;2024-02-28T13:00:48;3.60;;;3.17;;
21558;SDS011;10940;48.890;8.240;2024-02-28T13:03:14;2.40;;;2.23;;
21558;SDS011;10940;48.890;8.240;2024-02-28T13:05:41;2.60;;;2.40;;
21558;SDS011;10940;48.890;8.240;2024-02-28T13:08:07;2.50;;;2.30;;
21558;SDS011;10940;48.890;8.240;2024-02-28T13:10:32;2.27;;;2.17;;
21558;SDS011;10940;48.890;8.240;2024-02-28T13:13:01;1.43;;;1.43;;
21558;SDS011;10940;48.890;8.240;2024-02-28T13:15:29;2.30;;;2.20;;
21558;SDS011;10940;48.890;8.240;2024-02-28T13:17:54;1.73;;;1.70;;
21558;SDS011;10940;48.890;8.240;2024-02-28T13:20:20;1.50;;;1.40;;
21558;SDS011;10940;48.890;8.240;2024-02-28T13:22:46;6.87;;;3.17;;
21558;SDS011;10940;48.890;8.240;2024-02-28T13:25:12;4.20;;;3.03;;
21558;SDS011;10940;48.890;8.240;2024-02-28T13:27:39;2.53;;;2.43;;
21558;SDS011;10940;48.890;8.240;2024-02-28T13:30:06;2.13;;;2.03;;
21558;SDS011;10940;48.890;8.240;2024-02-28T13:32:32;1.37;;;1.37;;
21558;SDS011;10940;48.890;8.240;2024-02-28T13:34:58;1.97;;;1.87;;
21558;SDS011;10940;48.890;8.240;2024-02-28T13:37:24;2.03;;;1.93;;
21558;SDS011;10940;48.890;8.240;2024-02-28T13:39:50;1.50;;;1.43;;
21558;SDS011;10940;48.890;8.240;2024-02-28T13:42:17;2.27;;;2.17;;
21558;SDS011;10940;48.890;8.240;2024-02-28T13:44:45;2.00;;;1.90;;
21558;SDS011;10940;48.890;8.240;2024-02-28T13:47:11;1.47;;;1.47;;
21558;SDS011;10940;48.890;8.240;2024-02-28T13:49:38;1.67;;;1.57;;
21558;SDS011;10940;48.890;8.240;2024-02-28T13:52:04;2.90;;;2.63;;
21558;SDS011;10940;48.890;8.240;2024-02-28T13:54:30;2.90;;;2.53;;
21558;SDS011;10940;48.890;8.240;2024-02-28T13:56:56;2.23;;;2.13;;
21558;SDS011;10940;48.890;8.240;2024-02-28T13:59:22;2.93;;;2.73;;
21558;SDS011;10940;48.890;8.240;2024-02-28T14:01:48;2.30;;;1.53;;
21558;SDS011;10940;48.890;8.240;2024-02-28T14:04:14;1.47;;;1.47;;
21558;SDS011;10940;48.890;8.240;2024-02-28T14:06:40;1.80;;;1.70;;
21558;SDS011;10940;48.890;8.240;2024-02-28T14:09:06;1.80;;;1.70;;
21558;SDS011;10940;48.890;8.240;2024-02-28T14:11:32;2.00;;;1.90;;
21558;SDS011;10940;48.890;8.240;2024-02-28T14:13:57;2.30;;;2.10;;
21558;SDS011;10940;48.890;8.240;2024-02-28T14:16:23;1.93;;;1.83;;
21558;SDS011;10940;48.890;8.240;2024-02-28T14:18:49;1.20;;;1.20;;
21558;SDS011;10940;48.890;8.240;2024-02-28T14:21:16;1.80;;;1.70;;
21558;SDS011;10940;48.890;8.240;2024-02-28T14:23:42;1.63;;;1.53;;
21558;SDS011;10940;48.890;8.240;2024-02-28T14:26:07;2.50;;;2.30;;
21558;SDS011;10940;48.890;8.240;2024-02-28T14:28:33;1.97;;;1.87;;
21558;SDS011;10940;48.890;8.240;2024-02-28T14:30:58;2.03;;;1.93;;
21558;SDS011;10940;48.890;8.240;2024-02-28T14:33:24;4.07;;;2.33;;
21558;SDS011;10940;48.890;8.240;2024-02-28T14:35:50;1.57;;;1.50;;
21558;SDS011;10940;48.890;8.240;2024-02-28T14:38:16;5.50;;;2.33;;
21558;SDS011;10940;48.890;8.240;2024-02-28T14:40:42;2.27;;;2.10;;